Terminal Aerodrome Forecast
Issued by NWS Greer, SC

Home | Current Version | Previous Version | Text Only | Print | Product List | Glossary On
Versions: 1 2 3 4 5 6 7 8 9 10 11 12 13 14 15 16 17 18 19 20 21 22 23 24 25 26 27 28 29 30
000
FTUS42 KGSP 160500
TAFGSP
TAF
KGSP 160540Z 1606/1706 00000KT 4SM BR VCSH SCT004 SCT007 OVC014
      TEMPO 1606/1608 3SM -RA BKN004 BKN007 OVC012
     FM160800 22003KT 3SM BR OVC004
     FM161000 23003KT 3SM BR OVC010
      TEMPO 1610/1612 BKN006 OVC010
     FM161300 26004KT P6SM BKN019
     FM161500 30004KT P6SM SCT030 PROB30 1620/1702 4SM TSRA
      BKN030CB=

USA.gov is the U.S. government's official web portal to all federal, state and local government web resources and services.